sensor_id;sensor_type;location;lat;lon;timestamp;P1;durP1;ratioP1;P2;durP2;ratioP2
51566;SDS011;37657;53.182;5.638;2023-12-20T00:00:57;7.32;;;3.65;;
51566;SDS011;37657;53.182;5.638;2023-12-20T00:03:22;13.05;;;5.53;;
51566;SDS011;37657;53.182;5.638;2023-12-20T00:05:49;9.52;;;5.15;;
51566;SDS011;37657;53.182;5.638;2023-12-20T00:08:15;11.38;;;5.75;;
51566;SDS011;37657;53.182;5.638;2023-12-20T00:10:41;12.02;;;4.63;;
51566;SDS011;37657;53.182;5.638;2023-12-20T00:13:06;10.48;;;4.18;;
51566;SDS011;37657;53.182;5.638;2023-12-20T00:15:33;10.85;;;4.53;;
51566;SDS011;37657;53.182;5.638;2023-12-20T00:18:00;17.00;;;5.00;;
51566;SDS011;37657;53.182;5.638;2023-12-20T00:20:26;14.15;;;6.20;;
51566;SDS011;37657;53.182;5.638;2023-12-20T00:22:52;17.35;;;6.13;;
51566;SDS011;37657;53.182;5.638;2023-12-20T00:25:19;6.80;;;4.30;;
51566;SDS011;37657;53.182;5.638;2023-12-20T00:27:45;14.52;;;5.93;;
51566;SDS011;37657;53.182;5.638;2023-12-20T00:30:10;16.10;;;6.32;;
51566;SDS011;37657;53.182;5.638;2023-12-20T00:32:36;19.40;;;7.38;;
51566;SDS011;37657;53.182;5.638;2023-12-20T00:35:02;11.63;;;4.97;;
51566;SDS011;37657;53.182;5.638;2023-12-20T00:37:28;8.75;;;5.18;;
51566;SDS011;37657;53.182;5.638;2023-12-20T00:39:53;17.38;;;5.28;;
51566;SDS011;37657;53.182;5.638;2023-12-20T00:42:19;11.43;;;4.85;;
51566;SDS011;37657;53.182;5.638;2023-12-20T00:44:44;11.65;;;5.18;;
51566;SDS011;37657;53.182;5.638;2023-12-20T00:47:10;35.53;;;5.95;;
51566;SDS011;37657;53.182;5.638;2023-12-20T00:49:36;14.88;;;6.35;;
51566;SDS011;37657;53.182;5.638;2023-12-20T00:52:01;28.67;;;7.85;;
51566;SDS011;37657;53.182;5.638;2023-12-20T00:54:27;14.88;;;5.88;;
51566;SDS011;37657;53.182;5.638;2023-12-20T00:56:53;15.25;;;7.07;;
51566;SDS011;37657;53.182;5.638;2023-12-20T00:59:19;13.88;;;5.53;;
51566;SDS011;37657;53.182;5.638;2023-12-20T01:01:44;22.35;;;6.28;;
51566;SDS011;37657;53.182;5.638;2023-12-20T01:04:10;17.73;;;6.18;;
51566;SDS011;37657;53.182;5.638;2023-12-20T01:06:36;9.20;;;5.38;;
51566;SDS011;37657;53.182;5.638;2023-12-20T01:09:01;15.13;;;5.47;;
51566;SDS011;37657;53.182;5.638;2023-12-20T01:11:27;17.63;;;7.65;;
51566;SDS011;37657;53.182;5.638;2023-12-20T01:13:53;14.77;;;7.03;;
51566;SDS011;37657;53.182;5.638;2023-12-20T01:16:19;13.98;;;6.70;;
51566;SDS011;37657;53.182;5.638;2023-12-20T01:18:44;15.07;;;6.18;;
51566;SDS011;37657;53.182;5.638;2023-12-20T01:21:10;15.68;;;6.15;;
51566;SDS011;37657;53.182;5.638;2023-12-20T01:23:36;14.25;;;5.90;;
51566;SDS011;37657;53.182;5.638;2023-12-20T01:26:01;19.70;;;7.60;;
51566;SDS011;37657;53.182;5.638;2023-12-20T01:28:30;27.98;;;7.43;;
51566;SDS011;37657;53.182;5.638;2023-12-20T01:30:56;13.32;;;7.38;;
51566;SDS011;37657;53.182;5.638;2023-12-20T01:33:22;13.70;;;5.80;;
51566;SDS011;37657;53.182;5.638;2023-12-20T01:35:48;12.73;;;6.32;;
51566;SDS011;37657;53.182;5.638;2023-12-20T01:38:14;16.00;;;6.30;;
51566;SDS011;37657;53.182;5.638;2023-12-20T01:40:39;10.25;;;6.50;;
51566;SDS011;37657;53.182;5.638;2023-12-20T01:43:07;14.85;;;8.02;;
51566;SDS011;37657;53.182;5.638;2023-12-20T01:45:33;13.15;;;5.80;;
51566;SDS011;37657;53.182;5.638;2023-12-20T01:47:59;12.48;;;6.68;;
51566;SDS011;37657;53.182;5.638;2023-12-20T01:50:26;18.73;;;7.97;;
51566;SDS011;37657;53.182;5.638;2023-12-20T01:52:53;21.45;;;6.95;;
51566;SDS011;37657;53.182;5.638;2023-12-20T01:55:22;14.38;;;7.55;;
51566;SDS011;37657;53.182;5.638;2023-12-20T01:57:49;20.30;;;8.20;;
51566;SDS011;37657;53.182;5.638;2023-12-20T02:00:16;16.48;;;6.03;;
51566;SDS011;37657;53.182;5.638;2023-12-20T02:02:43;18.48;;;7.30;;
51566;SDS011;37657;53.182;5.638;2023-12-20T02:05:10;21.15;;;6.53;;
51566;SDS011;37657;53.182;5.638;2023-12-20T02:07:38;17.77;;;8.07;;
51566;SDS011;37657;53.182;5.638;2023-12-20T02:10:04;16.65;;;6.38;;
51566;SDS011;37657;53.182;5.638;2023-12-20T02:12:30;14.65;;;6.68;;
51566;SDS011;37657;53.182;5.638;2023-12-20T02:14:55;19.88;;;7.13;;
51566;SDS011;37657;53.182;5.638;2023-12-20T02:17:21;20.00;;;6.65;;
51566;SDS011;37657;53.182;5.638;2023-12-20T02:19:49;16.67;;;8.88;;
51566;SDS011;37657;53.182;5.638;2023-12-20T02:22:14;17.38;;;7.65;;
51566;SDS011;37657;53.182;5.638;2023-12-20T02:24:40;24.75;;;7.18;;
51566;SDS011;37657;53.182;5.638;2023-12-20T02:27:06;16.70;;;7.22;;
51566;SDS011;37657;53.182;5.638;2023-12-20T02:29:33;18.02;;;7.88;;
51566;SDS011;37657;53.182;5.638;2023-12-20T02:31:59;20.90;;;6.05;;
51566;SDS011;37657;53.182;5.638;2023-12-20T02:34:25;17.60;;;8.10;;
51566;SDS011;37657;53.182;5.638;2023-12-20T02:36:50;11.93;;;5.18;;
51566;SDS011;37657;53.182;5.638;2023-12-20T02:39:16;15.48;;;4.50;;
51566;SDS011;37657;53.182;5.638;2023-12-20T02:41:42;14.48;;;5.68;;
51566;SDS011;37657;53.182;5.638;2023-12-20T02:44:07;18.70;;;8.73;;
51566;SDS011;37657;53.182;5.638;2023-12-20T02:46:33;17.13;;;8.85;;
51566;SDS011;37657;53.182;5.638;2023-12-20T02:48:58;28.23;;;8.23;;
51566;SDS011;37657;53.182;5.638;2023-12-20T02:51:24;20.95;;;8.45;;
51566;SDS011;37657;53.182;5.638;2023-12-20T02:53:50;16.00;;;7.18;;
51566;SDS011;37657;53.182;5.638;2023-12-20T02:56:15;11.50;;;5.78;;
51566;SDS011;37657;53.182;5.638;2023-12-20T02:58:41;16.08;;;7.05;;
51566;SDS011;37657;53.182;5.638;2023-12-20T03:01:06;27.70;;;8.23;;
51566;SDS011;37657;53.182;5.638;2023-12-20T03:03:32;16.42;;;7.05;;
51566;SDS011;37657;53.182;5.638;2023-12-20T03:05:58;16.38;;;7.07;;
51566;SDS011;37657;53.182;5.638;2023-12-20T03:08:23;17.05;;;7.60;;
51566;SDS011;37657;53.182;5.638;2023-12-20T03:10:49;17.95;;;6.97;;
51566;SDS011;37657;53.182;5.638;2023-12-20T03:13:15;10.88;;;5.43;;
51566;SDS011;37657;53.182;5.638;2023-12-20T03:15:41;13.90;;;6.22;;
51566;SDS011;37657;53.182;5.638;2023-12-20T03:18:06;22.33;;;8.05;;
51566;SDS011;37657;53.182;5.638;2023-12-20T03:20:32;10.75;;;6.53;;
51566;SDS011;37657;53.182;5.638;2023-12-20T03:23:00;15.52;;;7.75;;
51566;SDS011;37657;53.182;5.638;2023-12-20T03:25:26;33.83;;;7.47;;
51566;SDS011;37657;53.182;5.638;2023-12-20T03:27:52;18.10;;;6.50;;
51566;SDS011;37657;53.182;5.638;2023-12-20T03:30:18;15.32;;;6.25;;
51566;SDS011;37657;53.182;5.638;2023-12-20T03:32:44;14.57;;;6.63;;
51566;SDS011;37657;53.182;5.638;2023-12-20T03:35:10;17.67;;;6.82;;
51566;SDS011;37657;53.182;5.638;2023-12-20T03:37:36;15.85;;;7.20;;
51566;SDS011;37657;53.182;5.638;2023-12-20T03:40:02;33.85;;;7.55;;
51566;SDS011;37657;53.182;5.638;2023-12-20T03:42:28;13.45;;;6.80;;
51566;SDS011;37657;53.182;5.638;2023-12-20T03:44:53;16.98;;;8.48;;
51566;SDS011;37657;53.182;5.638;2023-12-20T03:47:19;19.25;;;8.05;;
51566;SDS011;37657;53.182;5.638;2023-12-20T03:49:44;16.55;;;7.30;;
51566;SDS011;37657;53.182;5.638;2023-12-20T03:52:10;16.67;;;6.05;;
51566;SDS011;37657;53.182;5.638;2023-12-20T03:54:35;12.65;;;7.20;;
51566;SDS011;37657;53.182;5.638;2023-12-20T03:57:01;22.38;;;10.05;;
51566;SDS011;37657;53.182;5.638;2023-12-20T03:59:27;13.45;;;6.90;;
51566;SDS011;37657;53.182;5.638;2023-12-20T04:01:52;11.68;;;6.10;;
51566;SDS011;37657;53.182;5.638;2023-12-20T04:04:18;10.55;;;5.40;;
51566;SDS011;37657;53.182;5.638;2023-12-20T04:06:44;25.35;;;8.27;;
51566;SDS011;37657;53.182;5.638;2023-12-20T04:09:09;21.42;;;8.88;;
51566;SDS011;37657;53.182;5.638;2023-12-20T04:11:36;11.98;;;5.90;;
51566;SDS011;37657;53.182;5.638;2023-12-20T04:14:01;17.92;;;7.22;;
51566;SDS011;37657;53.182;5.638;2023-12-20T04:16:27;24.80;;;11.07;;
51566;SDS011;37657;53.182;5.638;2023-12-20T04:18:53;12.13;;;6.13;;
51566;SDS011;37657;53.182;5.638;2023-12-20T04:21:18;20.70;;;6.78;;
51566;SDS011;37657;53.182;5.638;2023-12-20T04:23:44;20.80;;;6.82;;
51566;SDS011;37657;53.182;5.638;2023-12-20T04:26:10;16.23;;;6.50;;
51566;SDS011;37657;53.182;5.638;2023-12-20T04:28:35;10.88;;;5.47;;
51566;SDS011;37657;53.182;5.638;2023-12-20T04:31:01;13.75;;;8.07;;
51566;SDS011;37657;53.182;5.638;2023-12-20T04:33:26;19.02;;;8.73;;
51566;SDS011;37657;53.182;5.638;2023-12-20T04:35:52;13.95;;;6.90;;
51566;SDS011;37657;53.182;5.638;2023-12-20T04:38:18;13.73;;;6.25;;
51566;SDS011;37657;53.182;5.638;2023-12-20T04:40:43;19.40;;;5.80;;
51566;SDS011;37657;53.182;5.638;2023-12-20T04:43:09;20.58;;;8.60;;
51566;SDS011;37657;53.182;5.638;2023-12-20T04:45:35;11.43;;;6.93;;
51566;SDS011;37657;53.182;5.638;2023-12-20T04:48:01;16.27;;;8.70;;
51566;SDS011;37657;53.182;5.638;2023-12-20T04:50:27;18.17;;;8.10;;
51566;SDS011;37657;53.182;5.638;2023-12-20T04:52:53;16.42;;;6.03;;
51566;SDS011;37657;53.182;5.638;2023-12-20T04:55:18;10.57;;;5.63;;
51566;SDS011;37657;53.182;5.638;2023-12-20T04:57:45;17.13;;;8.05;;
51566;SDS011;37657;53.182;5.638;2023-12-20T05:00:10;18.85;;;6.47;;
51566;SDS011;37657;53.182;5.638;2023-12-20T05:02:37;21.85;;;7.03;;
51566;SDS011;37657;53.182;5.638;2023-12-20T05:05:03;16.75;;;8.82;;
51566;SDS011;37657;53.182;5.638;2023-12-20T05:07:28;7.25;;;4.63;;
51566;SDS011;37657;53.182;5.638;2023-12-20T05:09:54;19.35;;;8.68;;
51566;SDS011;37657;53.182;5.638;2023-12-20T05:12:19;16.02;;;6.63;;
51566;SDS011;37657;53.182;5.638;2023-12-20T05:14:46;19.30;;;7.80;;
51566;SDS011;37657;53.182;5.638;2023-12-20T05:17:11;15.38;;;7.40;;
51566;SDS011;37657;53.182;5.638;2023-12-20T05:19:37;17.60;;;7.03;;
51566;SDS011;37657;53.182;5.638;2023-12-20T05:22:03;22.58;;;7.93;;
51566;SDS011;37657;53.182;5.638;2023-12-20T05:24:28;32.25;;;6.78;;
51566;SDS011;37657;53.182;5.638;2023-12-20T05:26:54;17.40;;;6.55;;
51566;SDS011;37657;53.182;5.638;2023-12-20T05:29:20;24.15;;;8.35;;
51566;SDS011;37657;53.182;5.638;2023-12-20T05:31:45;13.98;;;6.47;;
51566;SDS011;37657;53.182;5.638;2023-12-20T05:34:11;13.73;;;9.27;;
51566;SDS011;37657;53.182;5.638;2023-12-20T05:36:37;16.73;;;7.60;;
51566;SDS011;37657;53.182;5.638;2023-12-20T05:39:04;15.88;;;7.70;;
51566;SDS011;37657;53.182;5.638;2023-12-20T05:41:30;16.75;;;6.47;;
51566;SDS011;37657;53.182;5.638;2023-12-20T05:43:56;14.32;;;7.90;;
51566;SDS011;37657;53.182;5.638;2023-12-20T05:46:23;16.67;;;6.60;;
51566;SDS011;37657;53.182;5.638;2023-12-20T05:48:49;20.40;;;7.65;;
51566;SDS011;37657;53.182;5.638;2023-12-20T05:51:16;20.90;;;6.10;;
51566;SDS011;37657;53.182;5.638;2023-12-20T05:53:42;16.90;;;6.95;;
51566;SDS011;37657;53.182;5.638;2023-12-20T05:56:09;21.35;;;8.02;;
51566;SDS011;37657;53.182;5.638;2023-12-20T05:58:35;13.88;;;7.28;;
51566;SDS011;37657;53.182;5.638;2023-12-20T06:01:03;12.25;;;6.53;;
51566;SDS011;37657;53.182;5.638;2023-12-20T06:03:29;11.93;;;5.72;;
51566;SDS011;37657;53.182;5.638;2023-12-20T06:05:55;21.20;;;7.10;;
51566;SDS011;37657;53.182;5.638;2023-12-20T06:08:21;17.85;;;6.97;;
51566;SDS011;37657;53.182;5.638;2023-12-20T06:10:46;22.40;;;7.95;;
51566;SDS011;37657;53.182;5.638;2023-12-20T06:13:12;14.50;;;6.38;;
51566;SDS011;37657;53.182;5.638;2023-12-20T06:15:39;19.35;;;8.50;;
51566;SDS011;37657;53.182;5.638;2023-12-20T06:18:05;19.98;;;6.78;;
51566;SDS011;37657;53.182;5.638;2023-12-20T06:20:32;29.33;;;13.98;;
51566;SDS011;37657;53.182;5.638;2023-12-20T06:22:58;13.93;;;5.30;;
51566;SDS011;37657;53.182;5.638;2023-12-20T06:25:24;18.98;;;8.77;;
51566;SDS011;37657;53.182;5.638;2023-12-20T06:27:50;17.42;;;8.07;;
51566;SDS011;37657;53.182;5.638;2023-12-20T06:30:16;14.30;;;8.10;;
51566;SDS011;37657;53.182;5.638;2023-12-20T06:32:42;19.80;;;8.88;;
51566;SDS011;37657;53.182;5.638;2023-12-20T06:35:10;19.35;;;7.95;;
51566;SDS011;37657;53.182;5.638;2023-12-20T06:37:36;35.42;;;10.02;;
51566;SDS011;37657;53.182;5.638;2023-12-20T06:40:02;21.00;;;7.78;;
51566;SDS011;37657;53.182;5.638;2023-12-20T06:42:27;22.77;;;9.15;;
51566;SDS011;37657;53.182;5.638;2023-12-20T06:44:53;33.33;;;9.48;;
51566;SDS011;37657;53.182;5.638;2023-12-20T06:47:19;13.48;;;7.70;;
51566;SDS011;37657;53.182;5.638;2023-12-20T06:49:44;38.40;;;6.60;;
51566;SDS011;37657;53.182;5.638;2023-12-20T06:52:10;35.13;;;8.77;;
51566;SDS011;37657;53.182;5.638;2023-12-20T06:54:35;30.92;;;9.90;;
51566;SDS011;37657;53.182;5.638;2023-12-20T06:57:01;14.13;;;7.75;;
51566;SDS011;37657;53.182;5.638;2023-12-20T06:59:28;18.00;;;8.15;;
51566;SDS011;37657;53.182;5.638;2023-12-20T07:01:54;16.05;;;7.90;;
51566;SDS011;37657;53.182;5.638;2023-12-20T07:04:20;13.52;;;6.30;;
51566;SDS011;37657;53.182;5.638;2023-12-20T07:06:47;25.77;;;7.15;;
51566;SDS011;37657;53.182;5.638;2023-12-20T07:09:16;13.10;;;5.88;;
51566;SDS011;37657;53.182;5.638;2023-12-20T07:11:41;16.67;;;6.70;;
51566;SDS011;37657;53.182;5.638;2023-12-20T07:14:07;20.17;;;7.43;;
51566;SDS011;37657;53.182;5.638;2023-12-20T07:16:33;14.50;;;7.65;;
51566;SDS011;37657;53.182;5.638;2023-12-20T07:19:00;26.00;;;8.30;;
51566;SDS011;37657;53.182;5.638;2023-12-20T07:21:25;14.13;;;7.57;;
51566;SDS011;37657;53.182;5.638;2023-12-20T07:23:51;15.15;;;8.52;;
51566;SDS011;37657;53.182;5.638;2023-12-20T07:26:17;33.92;;;8.93;;
51566;SDS011;37657;53.182;5.638;2023-12-20T07:28:42;14.35;;;7.82;;
51566;SDS011;37657;53.182;5.638;2023-12-20T07:31:08;15.57;;;8.45;;
51566;SDS011;37657;53.182;5.638;2023-12-20T07:33:34;24.27;;;8.40;;
51566;SDS011;37657;53.182;5.638;2023-12-20T07:35:59;16.17;;;7.53;;
51566;SDS011;37657;53.182;5.638;2023-12-20T07:38:25;18.73;;;7.32;;
51566;SDS011;37657;53.182;5.638;2023-12-20T07:40:51;19.85;;;9.95;;
51566;SDS011;37657;53.182;5.638;2023-12-20T07:43:17;34.67;;;8.98;;
51566;SDS011;37657;53.182;5.638;2023-12-20T07:45:42;19.02;;;7.80;;
51566;SDS011;37657;53.182;5.638;2023-12-20T07:48:08;13.75;;;6.22;;
51566;SDS011;37657;53.182;5.638;2023-12-20T07:50:34;19.20;;;7.82;;
51566;SDS011;37657;53.182;5.638;2023-12-20T07:52:59;22.20;;;8.27;;
51566;SDS011;37657;53.182;5.638;2023-12-20T07:55:26;24.42;;;8.68;;
51566;SDS011;37657;53.182;5.638;2023-12-20T07:57:52;14.70;;;8.85;;
51566;SDS011;37657;53.182;5.638;2023-12-20T08:00:18;26.23;;;11.13;;
51566;SDS011;37657;53.182;5.638;2023-12-20T08:02:44;14.20;;;7.68;;
51566;SDS011;37657;53.182;5.638;2023-12-20T08:05:10;18.67;;;9.55;;
51566;SDS011;37657;53.182;5.638;2023-12-20T08:07:35;31.10;;;9.27;;
51566;SDS011;37657;53.182;5.638;2023-12-20T08:10:01;16.25;;;7.97;;
51566;SDS011;37657;53.182;5.638;2023-12-20T08:12:27;15.50;;;7.43;;
51566;SDS011;37657;53.182;5.638;2023-12-20T08:14:53;16.52;;;6.40;;
51566;SDS011;37657;53.182;5.638;2023-12-20T08:17:19;20.58;;;8.13;;
51566;SDS011;37657;53.182;5.638;2023-12-20T08:19:45;19.50;;;8.85;;
51566;SDS011;37657;53.182;5.638;2023-12-20T08:22:11;17.15;;;7.47;;
51566;SDS011;37657;53.182;5.638;2023-12-20T08:24:37;14.60;;;7.70;;
51566;SDS011;37657;53.182;5.638;2023-12-20T08:27:03;21.50;;;6.32;;
51566;SDS011;37657;53.182;5.638;2023-12-20T08:29:29;21.52;;;7.22;;
51566;SDS011;37657;53.182;5.638;2023-12-20T08:31:55;16.02;;;8.13;;
51566;SDS011;37657;53.182;5.638;2023-12-20T08:34:21;17.08;;;8.13;;
51566;SDS011;37657;53.182;5.638;2023-12-20T08:36:47;18.45;;;6.95;;
51566;SDS011;37657;53.182;5.638;2023-12-20T08:39:13;12.00;;;6.28;;
51566;SDS011;37657;53.182;5.638;2023-12-20T08:41:38;21.48;;;8.57;;
51566;SDS011;37657;53.182;5.638;2023-12-20T08:44:04;36.10;;;10.15;;
51566;SDS011;37657;53.182;5.638;2023-12-20T08:46:29;16.45;;;7.22;;
51566;SDS011;37657;53.182;5.638;2023-12-20T08:48:55;16.65;;;6.43;;
51566;SDS011;37657;53.182;5.638;2023-12-20T08:51:21;15.05;;;4.10;;
51566;SDS011;37657;53.182;5.638;2023-12-20T08:53:48;10.18;;;4.40;;
51566;SDS011;37657;53.182;5.638;2023-12-20T08:56:14;11.45;;;5.63;;
51566;SDS011;37657;53.182;5.638;2023-12-20T08:58:40;13.20;;;5.07;;
51566;SDS011;37657;53.182;5.638;2023-12-20T09:01:06;12.18;;;4.78;;
51566;SDS011;37657;53.182;5.638;2023-12-20T09:03:32;7.93;;;3.28;;
51566;SDS011;37657;53.182;5.638;2023-12-20T09:05:58;9.82;;;3.63;;
51566;SDS011;37657;53.182;5.638;2023-12-20T09:08:24;7.80;;;3.08;;
51566;SDS011;37657;53.182;5.638;2023-12-20T09:10:49;8.73;;;4.47;;
51566;SDS011;37657;53.182;5.638;2023-12-20T09:13:15;5.32;;;3.20;;
51566;SDS011;37657;53.182;5.638;2023-12-20T09:15:41;5.22;;;2.60;;
51566;SDS011;37657;53.182;5.638;2023-12-20T09:18:06;12.88;;;5.22;;
51566;SDS011;37657;53.182;5.638;2023-12-20T09:20:33;10.13;;;3.00;;
51566;SDS011;37657;53.182;5.638;2023-12-20T09:22:59;13.00;;;4.75;;
51566;SDS011;37657;53.182;5.638;2023-12-20T09:25:24;7.22;;;3.90;;
51566;SDS011;37657;53.182;5.638;2023-12-20T09:27:51;8.23;;;3.20;;
51566;SDS011;37657;53.182;5.638;2023-12-20T09:30:17;9.55;;;4.43;;
51566;SDS011;37657;53.182;5.638;2023-12-20T09:32:43;6.03;;;3.30;;
51566;SDS011;37657;53.182;5.638;2023-12-20T09:35:10;23.80;;;7.47;;
51566;SDS011;37657;53.182;5.638;2023-12-20T09:37:36;11.23;;;4.05;;
51566;SDS011;37657;53.182;5.638;2023-12-20T09:40:02;8.68;;;3.67;;
51566;SDS011;37657;53.182;5.638;2023-12-20T09:42:39;12.18;;;4.35;;
51566;SDS011;37657;53.182;5.638;2023-12-20T09:45:14;39.55;;;6.93;;
51566;SDS011;37657;53.182;5.638;2023-12-20T09:47:43;8.27;;;3.47;;
51566;SDS011;37657;53.182;5.638;2023-12-20T09:50:09;6.32;;;3.38;;
51566;SDS011;37657;53.182;5.638;2023-12-20T09:52:36;7.80;;;3.55;;
51566;SDS011;37657;53.182;5.638;2023-12-20T09:55:01;17.73;;;3.63;;
51566;SDS011;37657;53.182;5.638;2023-12-20T09:57:31;8.88;;;3.80;;
51566;SDS011;37657;53.182;5.638;2023-12-20T09:59:57;8.00;;;3.42;;
51566;SDS011;37657;53.182;5.638;2023-12-20T10:02:23;11.65;;;3.90;;
51566;SDS011;37657;53.182;5.638;2023-12-20T10:04:54;9.50;;;4.18;;
51566;SDS011;37657;53.182;5.638;2023-12-20T10:07:20;19.70;;;4.93;;
51566;SDS011;37657;53.182;5.638;2023-12-20T10:09:47;14.80;;;4.55;;
51566;SDS011;37657;53.182;5.638;2023-12-20T10:12:13;12.20;;;3.88;;
51566;SDS011;37657;53.182;5.638;2023-12-20T10:14:39;22.88;;;4.35;;
51566;SDS011;37657;53.182;5.638;2023-12-20T10:17:05;28.60;;;5.90;;
51566;SDS011;37657;53.182;5.638;2023-12-20T10:19:31;9.63;;;3.95;;
51566;SDS011;37657;53.182;5.638;2023-12-20T10:22:01;31.27;;;5.05;;
51566;SDS011;37657;53.182;5.638;2023-12-20T10:24:31;8.23;;;4.38;;
51566;SDS011;37657;53.182;5.638;2023-12-20T10:27:04;13.27;;;4.60;;
51566;SDS011;37657;53.182;5.638;2023-12-20T10:29:37;7.30;;;2.65;;
51566;SDS011;37657;53.182;5.638;2023-12-20T10:32:22;11.73;;;4.03;;
51566;SDS011;37657;53.182;5.638;2023-12-20T10:34:51;10.73;;;3.75;;
51566;SDS011;37657;53.182;5.638;2023-12-20T10:37:18;9.00;;;3.25;;
51566;SDS011;37657;53.182;5.638;2023-12-20T10:39:45;13.95;;;3.60;;
51566;SDS011;37657;53.182;5.638;2023-12-20T10:42:17;10.10;;;4.28;;
51566;SDS011;37657;53.182;5.638;2023-12-20T10:44:45;13.00;;;3.80;;
51566;SDS011;37657;53.182;5.638;2023-12-20T10:47:12;9.23;;;3.78;;
51566;SDS011;37657;53.182;5.638;2023-12-20T10:49:38;20.92;;;4.32;;
51566;SDS011;37657;53.182;5.638;2023-12-20T10:52:05;9.60;;;5.53;;
51566;SDS011;37657;53.182;5.638;2023-12-20T10:54:32;23.75;;;5.65;;
51566;SDS011;37657;53.182;5.638;2023-12-20T10:56:58;22.67;;;6.10;;
51566;SDS011;37657;53.182;5.638;2023-12-20T10:59:24;10.38;;;4.72;;
51566;SDS011;37657;53.182;5.638;2023-12-20T11:01:54;14.07;;;4.95;;
51566;SDS011;37657;53.182;5.638;2023-12-20T11:04:23;10.00;;;5.03;;
51566;SDS011;37657;53.182;5.638;2023-12-20T11:07:05;13.35;;;3.88;;
51566;SDS011;37657;53.182;5.638;2023-12-20T11:10:30;15.25;;;4.60;;
51566;SDS011;37657;53.182;5.638;2023-12-20T11:15:39;9.85;;;4.70;;
51566;SDS011;37657;53.182;5.638;2023-12-20T11:18:05;7.97;;;3.63;;
51566;SDS011;37657;53.182;5.638;2023-12-20T11:20:35;10.13;;;4.20;;
51566;SDS011;37657;53.182;5.638;2023-12-20T11:23:05;7.25;;;4.20;;
51566;SDS011;37657;53.182;5.638;2023-12-20T11:28:22;12.40;;;4.80;;
51566;SDS011;37657;53.182;5.638;2023-12-20T11:33:22;7.90;;;4.43;;
51566;SDS011;37657;53.182;5.638;2023-12-20T11:35:50;16.17;;;5.05;;
51566;SDS011;37657;53.182;5.638;2023-12-20T11:38:16;11.50;;;4.65;;
51566;SDS011;37657;53.182;5.638;2023-12-20T11:40:42;12.48;;;4.20;;
51566;SDS011;37657;53.182;5.638;2023-12-20T11:43:08;11.88;;;5.28;;
51566;SDS011;37657;53.182;5.638;2023-12-20T11:45:34;11.82;;;5.03;;
51566;SDS011;37657;53.182;5.638;2023-12-20T11:48:03;19.70;;;6.72;;
51566;SDS011;37657;53.182;5.638;2023-12-20T11:50:29;9.70;;;4.70;;
51566;SDS011;37657;53.182;5.638;2023-12-20T11:52:56;8.90;;;3.78;;
51566;SDS011;37657;53.182;5.638;2023-12-20T11:55:22;12.80;;;4.90;;
51566;SDS011;37657;53.182;5.638;2023-12-20T11:57:51;11.75;;;5.15;;
51566;SDS011;37657;53.182;5.638;2023-12-20T12:00:17;13.13;;;4.35;;
51566;SDS011;37657;53.182;5.638;2023-12-20T12:02:45;10.15;;;3.70;;
51566;SDS011;37657;53.182;5.638;2023-12-20T12:05:20;7.57;;;3.13;;
51566;SDS011;37657;53.182;5.638;2023-12-20T12:07:46;6.85;;;3.45;;
51566;SDS011;37657;53.182;5.638;2023-12-20T12:10:11;9.10;;;4.35;;
51566;SDS011;37657;53.182;5.638;2023-12-20T12:12:37;5.07;;;2.47;;
51566;SDS011;37657;53.182;5.638;2023-12-20T12:15:03;10.27;;;3.30;;
51566;SDS011;37657;53.182;5.638;2023-12-20T12:17:29;5.97;;;3.28;;
51566;SDS011;37657;53.182;5.638;2023-12-20T12:20:02;10.48;;;3.22;;
51566;SDS011;37657;53.182;5.638;2023-12-20T12:22:29;3.85;;;2.47;;
51566;SDS011;37657;53.182;5.638;2023-12-20T12:24:58;5.68;;;3.30;;
51566;SDS011;37657;53.182;5.638;2023-12-20T12:27:33;9.30;;;4.03;;
51566;SDS011;37657;53.182;5.638;2023-12-20T12:30:00;5.53;;;3.15;;
51566;SDS011;37657;53.182;5.638;2023-12-20T12:32:27;18.95;;;3.25;;
51566;SDS011;37657;53.182;5.638;2023-12-20T12:34:53;11.13;;;4.43;;
51566;SDS011;37657;53.182;5.638;2023-12-20T12:37:19;11.80;;;4.43;;
51566;SDS011;37657;53.182;5.638;2023-12-20T12:39:46;7.00;;;4.13;;
51566;SDS011;37657;53.182;5.638;2023-12-20T12:42:12;7.90;;;3.75;;
51566;SDS011;37657;53.182;5.638;2023-12-20T12:44:37;8.60;;;3.17;;
51566;SDS011;37657;53.182;5.638;2023-12-20T12:47:03;7.50;;;3.75;;
51566;SDS011;37657;53.182;5.638;2023-12-20T12:49:28;7.20;;;2.88;;
51566;SDS011;37657;53.182;5.638;2023-12-20T12:51:54;4.78;;;2.63;;
51566;SDS011;37657;53.182;5.638;2023-12-20T12:54:23;4.95;;;2.72;;
51566;SDS011;37657;53.182;5.638;2023-12-20T12:56:49;6.65;;;2.60;;
51566;SDS011;37657;53.182;5.638;2023-12-20T12:59:15;7.40;;;2.80;;
51566;SDS011;37657;53.182;5.638;2023-12-20T13:01:41;8.27;;;2.17;;
51566;SDS011;37657;53.182;5.638;2023-12-20T13:04:07;4.63;;;2.83;;
51566;SDS011;37657;53.182;5.638;2023-12-20T13:06:36;3.55;;;1.98;;
51566;SDS011;37657;53.182;5.638;2023-12-20T13:09:03;5.78;;;2.67;;
51566;SDS011;37657;53.182;5.638;2023-12-20T13:11:29;11.60;;;4.00;;
51566;SDS011;37657;53.182;5.638;2023-12-20T13:13:56;6.22;;;2.33;;
51566;SDS011;37657;53.182;5.638;2023-12-20T13:16:23;5.40;;;2.33;;
51566;SDS011;37657;53.182;5.638;2023-12-20T13:18:49;8.05;;;2.33;;
51566;SDS011;37657;53.182;5.638;2023-12-20T13:21:15;6.60;;;2.83;;
51566;SDS011;37657;53.182;5.638;2023-12-20T13:23:41;8.10;;;2.17;;
51566;SDS011;37657;53.182;5.638;2023-12-20T13:26:07;6.15;;;2.28;;
51566;SDS011;37657;53.182;5.638;2023-12-20T13:28:33;4.93;;;3.35;;
51566;SDS011;37657;53.182;5.638;2023-12-20T13:30:59;7.72;;;2.95;;
51566;SDS011;37657;53.182;5.638;2023-12-20T13:33:24;13.18;;;2.67;;
51566;SDS011;37657;53.182;5.638;2023-12-20T13:35:50;5.28;;;3.13;;
51566;SDS011;37657;53.182;5.638;2023-12-20T13:38:16;3.40;;;1.88;;
51566;SDS011;37657;53.182;5.638;2023-12-20T13:40:42;6.80;;;2.88;;
51566;SDS011;37657;53.182;5.638;2023-12-20T13:43:08;5.95;;;2.70;;
51566;SDS011;37657;53.182;5.638;2023-12-20T13:45:36;5.22;;;2.92;;
51566;SDS011;37657;53.182;5.638;2023-12-20T13:48:02;9.15;;;3.90;;
51566;SDS011;37657;53.182;5.638;2023-12-20T13:50:28;8.98;;;3.58;;
51566;SDS011;37657;53.182;5.638;2023-12-20T13:52:54;9.80;;;4.05;;
51566;SDS011;37657;53.182;5.638;2023-12-20T13:55:19;7.80;;;3.20;;
51566;SDS011;37657;53.182;5.638;2023-12-20T13:57:47;6.03;;;3.33;;
51566;SDS011;37657;53.182;5.638;2023-12-20T14:00:13;7.32;;;3.22;;
51566;SDS011;37657;53.182;5.638;2023-12-20T14:02:40;10.77;;;3.22;;
51566;SDS011;37657;53.182;5.638;2023-12-20T14:05:07;7.63;;;4.57;;
51566;SDS011;37657;53.182;5.638;2023-12-20T14:07:34;6.55;;;3.15;;
51566;SDS011;37657;53.182;5.638;2023-12-20T14:10:00;9.85;;;5.25;;
51566;SDS011;37657;53.182;5.638;2023-12-20T14:12:25;8.23;;;4.45;;
51566;SDS011;37657;53.182;5.638;2023-12-20T14:14:51;13.00;;;4.82;;
51566;SDS011;37657;53.182;5.638;2023-12-20T14:17:17;14.57;;;5.00;;
51566;SDS011;37657;53.182;5.638;2023-12-20T14:19:43;13.38;;;6.65;;
51566;SDS011;37657;53.182;5.638;2023-12-20T14:22:08;10.82;;;5.95;;
51566;SDS011;37657;53.182;5.638;2023-12-20T14:24:37;14.32;;;5.43;;
51566;SDS011;37657;53.182;5.638;2023-12-20T14:27:03;17.17;;;6.43;;
51566;SDS011;37657;53.182;5.638;2023-12-20T14:29:28;12.57;;;5.70;;
51566;SDS011;37657;53.182;5.638;2023-12-20T14:31:54;16.08;;;4.70;;
51566;SDS011;37657;53.182;5.638;2023-12-20T14:34:19;20.85;;;5.22;;
51566;SDS011;37657;53.182;5.638;2023-12-20T14:36:45;12.43;;;4.82;;
51566;SDS011;37657;53.182;5.638;2023-12-20T14:39:11;19.23;;;5.25;;
51566;SDS011;37657;53.182;5.638;2023-12-20T14:41:38;12.18;;;4.95;;